sensor_id;sensor_type;location;lat;lon;timestamp;P1;durP1;ratioP1;P2;durP2;ratioP2
25231;SDS011;13176;51.140;6.290;2022-07-12T00:01:41;32.08;;;30.10;;
25231;SDS011;13176;51.140;6.290;2022-07-12T00:04:08;31.20;;;29.60;;
25231;SDS011;13176;51.140;6.290;2022-07-12T00:06:35;30.67;;;29.08;;
25231;SDS011;13176;51.140;6.290;2022-07-12T00:09:02;29.33;;;27.83;;
25231;SDS011;13176;51.140;6.290;2022-07-12T00:11:28;30.40;;;28.85;;
25231;SDS011;13176;51.140;6.290;2022-07-12T00:13:54;35.58;;;33.78;;
25231;SDS011;13176;51.140;6.290;2022-07-12T00:16:21;36.85;;;34.85;;
25231;SDS011;13176;51.140;6.290;2022-07-12T00:18:49;37.42;;;35.53;;
25231;SDS011;13176;51.140;6.290;2022-07-12T00:21:15;38.97;;;36.92;;
25231;SDS011;13176;51.140;6.290;2022-07-12T00:23:42;39.53;;;37.47;;
25231;SDS011;13176;51.140;6.290;2022-07-12T00:26:08;38.33;;;36.33;;
25231;SDS011;13176;51.140;6.290;2022-07-12T00:28:34;36.25;;;34.17;;
25231;SDS011;13176;51.140;6.290;2022-07-12T00:31:01;35.72;;;33.90;;
25231;SDS011;13176;51.140;6.290;2022-07-12T00:33:27;37.45;;;35.53;;
25231;SDS011;13176;51.140;6.290;2022-07-12T00:35:54;36.85;;;34.95;;
25231;SDS011;13176;51.140;6.290;2022-07-12T00:38:21;32.55;;;30.85;;
25231;SDS011;13176;51.140;6.290;2022-07-12T00:40:47;32.53;;;30.80;;
25231;SDS011;13176;51.140;6.290;2022-07-12T00:43:15;32.58;;;30.67;;
25231;SDS011;13176;51.140;6.290;2022-07-12T00:45:42;34.50;;;32.63;;
25231;SDS011;13176;51.140;6.290;2022-07-12T00:48:08;34.30;;;32.58;;
25231;SDS011;13176;51.140;6.290;2022-07-12T00:50:36;35.95;;;33.85;;
25231;SDS011;13176;51.140;6.290;2022-07-12T00:53:03;35.60;;;33.80;;
25231;SDS011;13176;51.140;6.290;2022-07-12T00:55:29;32.75;;;30.98;;
25231;SDS011;13176;51.140;6.290;2022-07-12T00:57:56;34.42;;;32.63;;
25231;SDS011;13176;51.140;6.290;2022-07-12T01:00:24;36.83;;;34.92;;
25231;SDS011;13176;51.140;6.290;2022-07-12T01:02:52;35.75;;;33.90;;
25231;SDS011;13176;51.140;6.290;2022-07-12T01:05:22;39.50;;;37.35;;
25231;SDS011;13176;51.140;6.290;2022-07-12T01:07:49;39.72;;;37.65;;
25231;SDS011;13176;51.140;6.290;2022-07-12T01:10:16;38.05;;;36.13;;
25231;SDS011;13176;51.140;6.290;2022-07-12T01:12:42;42.20;;;40.00;;
25231;SDS011;13176;51.140;6.290;2022-07-12T01:15:09;39.17;;;37.17;;
25231;SDS011;13176;51.140;6.290;2022-07-12T01:17:36;39.45;;;37.33;;
25231;SDS011;13176;51.140;6.290;2022-07-12T01:20:03;40.28;;;38.17;;
25231;SDS011;13176;51.140;6.290;2022-07-12T01:22:36;38.65;;;36.65;;
25231;SDS011;13176;51.140;6.290;2022-07-12T01:27:33;40.95;;;38.67;;
25231;SDS011;13176;51.140;6.290;2022-07-12T01:30:00;41.75;;;39.55;;
25231;SDS011;13176;51.140;6.290;2022-07-12T01:32:29;41.58;;;39.38;;
25231;SDS011;13176;51.140;6.290;2022-07-12T01:35:00;38.67;;;36.67;;
25231;SDS011;13176;51.140;6.290;2022-07-12T01:37:30;41.78;;;39.58;;
25231;SDS011;13176;51.140;6.290;2022-07-12T01:40:00;42.38;;;40.17;;
25231;SDS011;13176;51.140;6.290;2022-07-12T01:42:28;43.03;;;40.78;;
25231;SDS011;13176;51.140;6.290;2022-07-12T01:44:56;42.92;;;40.67;;
25231;SDS011;13176;51.140;6.290;2022-07-12T01:47:24;46.40;;;43.83;;
25231;SDS011;13176;51.140;6.290;2022-07-12T01:49:53;41.92;;;39.35;;
25231;SDS011;13176;51.140;6.290;2022-07-12T01:52:20;43.63;;;41.33;;
25231;SDS011;13176;51.140;6.290;2022-07-12T01:54:46;44.78;;;42.38;;
25231;SDS011;13176;51.140;6.290;2022-07-12T01:57:13;43.95;;;41.65;;
25231;SDS011;13176;51.140;6.290;2022-07-12T01:59:40;45.65;;;43.25;;
25231;SDS011;13176;51.140;6.290;2022-07-12T02:02:09;44.65;;;42.25;;
25231;SDS011;13176;51.140;6.290;2022-07-12T02:04:35;45.85;;;43.17;;
25231;SDS011;13176;51.140;6.290;2022-07-12T02:07:03;43.60;;;41.33;;
25231;SDS011;13176;51.140;6.290;2022-07-12T02:09:31;44.75;;;42.35;;
25231;SDS011;13176;51.140;6.290;2022-07-12T02:11:57;41.70;;;39.53;;
25231;SDS011;13176;51.140;6.290;2022-07-12T02:14:24;43.33;;;40.83;;
25231;SDS011;13176;51.140;6.290;2022-07-12T02:16:51;44.05;;;41.75;;
25231;SDS011;13176;51.140;6.290;2022-07-12T02:19:17;47.58;;;45.08;;
25231;SDS011;13176;51.140;6.290;2022-07-12T02:21:44;46.40;;;43.85;;
25231;SDS011;13176;51.140;6.290;2022-07-12T02:24:10;47.00;;;44.50;;
25231;SDS011;13176;51.140;6.290;2022-07-12T02:26:37;45.63;;;43.15;;
25231;SDS011;13176;51.140;6.290;2022-07-12T02:29:04;44.50;;;42.20;;
25231;SDS011;13176;51.140;6.290;2022-07-12T02:31:31;43.78;;;41.40;;
25231;SDS011;13176;51.140;6.290;2022-07-12T02:33:58;44.78;;;42.47;;
25231;SDS011;13176;51.140;6.290;2022-07-12T02:36:25;45.83;;;43.42;;
25231;SDS011;13176;51.140;6.290;2022-07-12T02:38:52;43.15;;;40.88;;
25231;SDS011;13176;51.140;6.290;2022-07-12T02:41:18;42.70;;;40.50;;
25231;SDS011;13176;51.140;6.290;2022-07-12T02:43:45;41.67;;;39.38;;
25231;SDS011;13176;51.140;6.290;2022-07-12T02:46:12;39.97;;;37.83;;
25231;SDS011;13176;51.140;6.290;2022-07-12T02:48:40;42.90;;;40.60;;
25231;SDS011;13176;51.140;6.290;2022-07-12T02:51:07;42.58;;;40.28;;
25231;SDS011;13176;51.140;6.290;2022-07-12T02:53:35;43.58;;;41.30;;
25231;SDS011;13176;51.140;6.290;2022-07-12T02:56:07;41.92;;;39.67;;
25231;SDS011;13176;51.140;6.290;2022-07-12T02:58:35;43.63;;;41.30;;
25231;SDS011;13176;51.140;6.290;2022-07-12T03:01:02;43.60;;;41.28;;
25231;SDS011;13176;51.140;6.290;2022-07-12T03:03:29;43.28;;;40.97;;
25231;SDS011;13176;51.140;6.290;2022-07-12T03:05:56;42.38;;;40.13;;
25231;SDS011;13176;51.140;6.290;2022-07-12T03:08:24;41.20;;;39.05;;
25231;SDS011;13176;51.140;6.290;2022-07-12T03:10:50;44.97;;;42.60;;
25231;SDS011;13176;51.140;6.290;2022-07-12T03:13:17;42.97;;;40.70;;
25231;SDS011;13176;51.140;6.290;2022-07-12T03:15:43;42.92;;;40.70;;
25231;SDS011;13176;51.140;6.290;2022-07-12T03:18:12;44.35;;;41.97;;
25231;SDS011;13176;51.140;6.290;2022-07-12T03:20:40;44.78;;;42.38;;
25231;SDS011;13176;51.140;6.290;2022-07-12T03:23:06;44.05;;;41.67;;
25231;SDS011;13176;51.140;6.290;2022-07-12T03:25:33;41.65;;;39.50;;
25231;SDS011;13176;51.140;6.290;2022-07-12T03:28:00;38.58;;;36.53;;
25231;SDS011;13176;51.140;6.290;2022-07-12T03:30:26;39.95;;;37.90;;
25231;SDS011;13176;51.140;6.290;2022-07-12T03:32:53;39.83;;;37.58;;
25231;SDS011;13176;51.140;6.290;2022-07-12T03:35:21;39.33;;;37.28;;
25231;SDS011;13176;51.140;6.290;2022-07-12T03:37:48;37.92;;;35.92;;
25231;SDS011;13176;51.140;6.290;2022-07-12T03:40:17;37.15;;;35.03;;
25231;SDS011;13176;51.140;6.290;2022-07-12T03:42:45;35.97;;;34.10;;
25231;SDS011;13176;51.140;6.290;2022-07-12T03:45:13;38.00;;;35.90;;
25231;SDS011;13176;51.140;6.290;2022-07-12T03:47:40;35.85;;;33.80;;
25231;SDS011;13176;51.140;6.290;2022-07-12T03:50:08;35.67;;;33.83;;
25231;SDS011;13176;51.140;6.290;2022-07-12T03:52:39;35.53;;;33.55;;
25231;SDS011;13176;51.140;6.290;2022-07-12T03:55:08;35.53;;;33.65;;
25231;SDS011;13176;51.140;6.290;2022-07-12T03:57:35;35.53;;;33.67;;
25231;SDS011;13176;51.140;6.290;2022-07-12T04:00:06;34.05;;;32.25;;
25231;SDS011;13176;51.140;6.290;2022-07-12T04:02:38;33.50;;;31.60;;
25231;SDS011;13176;51.140;6.290;2022-07-12T04:05:06;33.13;;;31.30;;
25231;SDS011;13176;51.140;6.290;2022-07-12T04:07:33;32.03;;;30.38;;
25231;SDS011;13176;51.140;6.290;2022-07-12T04:10:00;30.88;;;29.30;;
25231;SDS011;13176;51.140;6.290;2022-07-12T04:12:27;31.83;;;30.23;;
25231;SDS011;13176;51.140;6.290;2022-07-12T04:14:53;31.35;;;29.73;;
25231;SDS011;13176;51.140;6.290;2022-07-12T04:17:20;30.70;;;29.13;;
25231;SDS011;13176;51.140;6.290;2022-07-12T04:19:46;30.67;;;29.13;;
25231;SDS011;13176;51.140;6.290;2022-07-12T04:22:12;31.25;;;29.65;;
25231;SDS011;13176;51.140;6.290;2022-07-12T04:24:39;33.85;;;32.15;;
25231;SDS011;13176;51.140;6.290;2022-07-12T04:27:05;33.38;;;31.58;;
25231;SDS011;13176;51.140;6.290;2022-07-12T04:29:32;31.77;;;29.80;;
25231;SDS011;13176;51.140;6.290;2022-07-12T04:31:58;27.58;;;26.13;;
25231;SDS011;13176;51.140;6.290;2022-07-12T04:34:25;30.02;;;28.42;;
25231;SDS011;13176;51.140;6.290;2022-07-12T04:36:51;28.00;;;26.48;;
25231;SDS011;13176;51.140;6.290;2022-07-12T04:39:21;26.92;;;25.52;;
25231;SDS011;13176;51.140;6.290;2022-07-12T04:41:47;29.40;;;27.90;;
25231;SDS011;13176;51.140;6.290;2022-07-12T04:44:14;29.80;;;28.23;;
25231;SDS011;13176;51.140;6.290;2022-07-12T04:46:40;29.95;;;28.35;;
25231;SDS011;13176;51.140;6.290;2022-07-12T04:49:07;26.83;;;25.33;;
25231;SDS011;13176;51.140;6.290;2022-07-12T04:51:33;29.48;;;27.88;;
25231;SDS011;13176;51.140;6.290;2022-07-12T04:54:00;29.45;;;27.95;;
25231;SDS011;13176;51.140;6.290;2022-07-12T04:56:26;30.17;;;28.58;;
25231;SDS011;13176;51.140;6.290;2022-07-12T04:58:53;30.55;;;28.85;;
25231;SDS011;13176;51.140;6.290;2022-07-12T05:01:25;30.02;;;28.20;;
25231;SDS011;13176;51.140;6.290;2022-07-12T05:03:52;31.13;;;29.42;;
25231;SDS011;13176;51.140;6.290;2022-07-12T05:06:18;29.48;;;27.88;;
25231;SDS011;13176;51.140;6.290;2022-07-12T05:08:45;34.13;;;31.35;;
25231;SDS011;13176;51.140;6.290;2022-07-12T05:11:12;32.08;;;30.08;;
25231;SDS011;13176;51.140;6.290;2022-07-12T05:13:38;30.83;;;29.08;;
25231;SDS011;13176;51.140;6.290;2022-07-12T05:16:08;36.05;;;34.13;;
25231;SDS011;13176;51.140;6.290;2022-07-12T05:18:35;39.42;;;37.33;;
25231;SDS011;13176;51.140;6.290;2022-07-12T05:21:02;37.20;;;35.20;;
25231;SDS011;13176;51.140;6.290;2022-07-12T05:23:28;33.63;;;31.63;;
25231;SDS011;13176;51.140;6.290;2022-07-12T05:25:55;40.95;;;38.70;;
25231;SDS011;13176;51.140;6.290;2022-07-12T05:28:21;36.65;;;34.35;;
25231;SDS011;13176;51.140;6.290;2022-07-12T05:30:48;39.35;;;37.00;;
25231;SDS011;13176;51.140;6.290;2022-07-12T05:33:14;41.35;;;38.95;;
25231;SDS011;13176;51.140;6.290;2022-07-12T05:35:41;42.75;;;40.03;;
25231;SDS011;13176;51.140;6.290;2022-07-12T05:38:07;43.70;;;41.10;;
25231;SDS011;13176;51.140;6.290;2022-07-12T05:40:34;41.45;;;38.97;;
25231;SDS011;13176;51.140;6.290;2022-07-12T05:43:00;44.97;;;42.17;;
25231;SDS011;13176;51.140;6.290;2022-07-12T05:45:27;44.95;;;41.95;;
25231;SDS011;13176;51.140;6.290;2022-07-12T05:47:54;40.63;;;38.20;;
25231;SDS011;13176;51.140;6.290;2022-07-12T05:50:21;40.38;;;37.88;;
25231;SDS011;13176;51.140;6.290;2022-07-12T05:52:48;40.08;;;37.30;;
25231;SDS011;13176;51.140;6.290;2022-07-12T05:57:59;35.88;;;33.80;;
25231;SDS011;13176;51.140;6.290;2022-07-12T06:00:25;40.10;;;37.83;;
25231;SDS011;13176;51.140;6.290;2022-07-12T06:02:52;38.83;;;36.45;;
25231;SDS011;13176;51.140;6.290;2022-07-12T06:05:19;43.65;;;41.15;;
25231;SDS011;13176;51.140;6.290;2022-07-12T06:07:45;40.72;;;38.38;;
25231;SDS011;13176;51.140;6.290;2022-07-12T06:10:12;43.50;;;41.00;;
25231;SDS011;13176;51.140;6.290;2022-07-12T06:12:38;40.53;;;38.15;;
25231;SDS011;13176;51.140;6.290;2022-07-12T06:15:05;40.88;;;38.28;;
25231;SDS011;13176;51.140;6.290;2022-07-12T06:17:33;44.03;;;41.60;;
25231;SDS011;13176;51.140;6.290;2022-07-12T06:20:01;40.08;;;37.75;;
25231;SDS011;13176;51.140;6.290;2022-07-12T06:22:29;45.55;;;42.90;;
25231;SDS011;13176;51.140;6.290;2022-07-12T06:24:55;44.30;;;41.65;;
25231;SDS011;13176;51.140;6.290;2022-07-12T06:27:22;48.88;;;45.78;;
25231;SDS011;13176;51.140;6.290;2022-07-12T06:29:48;45.72;;;42.88;;
25231;SDS011;13176;51.140;6.290;2022-07-12T06:32:15;45.97;;;43.20;;
25231;SDS011;13176;51.140;6.290;2022-07-12T06:34:42;47.15;;;44.35;;
25231;SDS011;13176;51.140;6.290;2022-07-12T06:37:09;47.38;;;44.58;;
25231;SDS011;13176;51.140;6.290;2022-07-12T06:39:35;47.55;;;44.75;;
25231;SDS011;13176;51.140;6.290;2022-07-12T06:42:02;45.47;;;42.83;;
25231;SDS011;13176;51.140;6.290;2022-07-12T06:44:30;47.97;;;45.22;;
25231;SDS011;13176;51.140;6.290;2022-07-12T06:46:58;44.65;;;42.13;;
25231;SDS011;13176;51.140;6.290;2022-07-12T06:49:25;46.75;;;43.78;;
25231;SDS011;13176;51.140;6.290;2022-07-12T06:51:52;45.80;;;43.00;;
25231;SDS011;13176;51.140;6.290;2022-07-12T06:54:18;45.40;;;42.80;;
25231;SDS011;13176;51.140;6.290;2022-07-12T06:56:45;43.25;;;40.65;;
25231;SDS011;13176;51.140;6.290;2022-07-12T06:59:11;46.15;;;43.53;;
25231;SDS011;13176;51.140;6.290;2022-07-12T07:01:41;49.05;;;46.05;;
25231;SDS011;13176;51.140;6.290;2022-07-12T07:04:07;48.00;;;45.15;;
25231;SDS011;13176;51.140;6.290;2022-07-12T07:06:34;53.13;;;49.92;;
25231;SDS011;13176;51.140;6.290;2022-07-12T07:09:00;57.90;;;54.42;;
25231;SDS011;13176;51.140;6.290;2022-07-12T07:11:27;57.78;;;54.40;;
25231;SDS011;13176;51.140;6.290;2022-07-12T07:13:53;61.10;;;57.17;;
25231;SDS011;13176;51.140;6.290;2022-07-12T07:16:21;43.65;;;41.15;;
25231;SDS011;13176;51.140;6.290;2022-07-12T07:18:50;44.45;;;41.95;;
25231;SDS011;13176;51.140;6.290;2022-07-12T07:21:16;44.90;;;42.33;;
25231;SDS011;13176;51.140;6.290;2022-07-12T07:23:43;36.03;;;34.08;;
25231;SDS011;13176;51.140;6.290;2022-07-12T07:26:09;41.17;;;38.80;;
25231;SDS011;13176;51.140;6.290;2022-07-12T07:28:36;43.45;;;41.10;;
25231;SDS011;13176;51.140;6.290;2022-07-12T07:31:22;46.05;;;43.53;;
25231;SDS011;13176;51.140;6.290;2022-07-12T07:33:49;44.83;;;42.22;;
25231;SDS011;13176;51.140;6.290;2022-07-12T07:36:15;45.15;;;42.25;;
25231;SDS011;13176;51.140;6.290;2022-07-12T07:38:42;45.03;;;42.35;;
25231;SDS011;13176;51.140;6.290;2022-07-12T07:41:08;43.35;;;40.85;;
25231;SDS011;13176;51.140;6.290;2022-07-12T07:43:35;41.10;;;38.60;;
25231;SDS011;13176;51.140;6.290;2022-07-12T07:46:01;47.35;;;44.63;;
25231;SDS011;13176;51.140;6.290;2022-07-12T07:48:28;46.30;;;43.63;;
25231;SDS011;13176;51.140;6.290;2022-07-12T07:50:55;43.78;;;41.10;;
25231;SDS011;13176;51.140;6.290;2022-07-12T07:53:22;47.72;;;44.88;;
25231;SDS011;13176;51.140;6.290;2022-07-12T07:55:51;42.25;;;39.88;;
25231;SDS011;13176;51.140;6.290;2022-07-12T07:58:17;45.33;;;42.58;;
25231;SDS011;13176;51.140;6.290;2022-07-12T08:00:43;54.38;;;51.20;;
25231;SDS011;13176;51.140;6.290;2022-07-12T08:03:10;60.22;;;56.35;;
25231;SDS011;13176;51.140;6.290;2022-07-12T08:05:36;59.00;;;55.28;;
25231;SDS011;13176;51.140;6.290;2022-07-12T08:08:03;51.78;;;48.55;;
25231;SDS011;13176;51.140;6.290;2022-07-12T08:10:30;57.30;;;53.78;;
25231;SDS011;13176;51.140;6.290;2022-07-12T08:12:57;57.10;;;53.83;;
25231;SDS011;13176;51.140;6.290;2022-07-12T08:15:23;42.17;;;39.83;;
25231;SDS011;13176;51.140;6.290;2022-07-12T08:17:50;32.55;;;30.77;;
25231;SDS011;13176;51.140;6.290;2022-07-12T08:20:20;33.72;;;31.83;;
25231;SDS011;13176;51.140;6.290;2022-07-12T08:23:08;25.75;;;24.15;;
25231;SDS011;13176;51.140;6.290;2022-07-12T08:25:35;30.77;;;28.63;;
25231;SDS011;13176;51.140;6.290;2022-07-12T08:28:01;34.80;;;32.75;;
25231;SDS011;13176;51.140;6.290;2022-07-12T08:30:28;31.80;;;30.08;;
25231;SDS011;13176;51.140;6.290;2022-07-12T08:32:54;32.25;;;30.38;;
25231;SDS011;13176;51.140;6.290;2022-07-12T08:35:21;32.08;;;30.15;;
25231;SDS011;13176;51.140;6.290;2022-07-12T08:37:47;29.00;;;27.40;;
25231;SDS011;13176;51.140;6.290;2022-07-12T08:40:14;29.67;;;27.67;;
25231;SDS011;13176;51.140;6.290;2022-07-12T08:42:41;23.80;;;22.40;;
25231;SDS011;13176;51.140;6.290;2022-07-12T08:45:09;24.65;;;23.35;;
25231;SDS011;13176;51.140;6.290;2022-07-12T08:47:36;22.73;;;21.52;;
25231;SDS011;13176;51.140;6.290;2022-07-12T08:52:41;21.88;;;20.73;;
25231;SDS011;13176;51.140;6.290;2022-07-12T08:55:17;22.10;;;20.92;;
25231;SDS011;13176;51.140;6.290;2022-07-12T08:57:45;20.23;;;19.20;;
25231;SDS011;13176;51.140;6.290;2022-07-12T09:00:13;19.48;;;18.35;;
25231;SDS011;13176;51.140;6.290;2022-07-12T09:02:43;19.38;;;18.17;;
25231;SDS011;13176;51.140;6.290;2022-07-12T09:05:15;21.10;;;19.67;;
25231;SDS011;13176;51.140;6.290;2022-07-12T09:07:43;19.75;;;18.65;;
25231;SDS011;13176;51.140;6.290;2022-07-12T09:10:11;18.25;;;17.27;;
25231;SDS011;13176;51.140;6.290;2022-07-12T09:12:39;19.63;;;18.48;;
25231;SDS011;13176;51.140;6.290;2022-07-12T09:15:17;18.88;;;17.77;;
25231;SDS011;13176;51.140;6.290;2022-07-12T09:17:55;16.60;;;15.70;;
25231;SDS011;13176;51.140;6.290;2022-07-12T09:20:27;15.70;;;14.90;;
25231;SDS011;13176;51.140;6.290;2022-07-12T09:22:57;18.92;;;17.95;;
25231;SDS011;13176;51.140;6.290;2022-07-12T09:25:25;15.43;;;14.60;;
25231;SDS011;13176;51.140;6.290;2022-07-12T09:27:52;15.93;;;14.93;;
25231;SDS011;13176;51.140;6.290;2022-07-12T09:30:21;14.60;;;13.90;;
25231;SDS011;13176;51.140;6.290;2022-07-12T09:32:50;14.82;;;14.10;;
25231;SDS011;13176;51.140;6.290;2022-07-12T09:35:41;14.98;;;14.18;;
25231;SDS011;13176;51.140;6.290;2022-07-12T09:38:28;20.70;;;19.33;;
25231;SDS011;13176;51.140;6.290;2022-07-12T09:40:54;20.40;;;19.08;;
25231;SDS011;13176;51.140;6.290;2022-07-12T09:43:22;25.13;;;23.83;;
25231;SDS011;13176;51.140;6.290;2022-07-12T09:45:49;22.33;;;21.13;;
25231;SDS011;13176;51.140;6.290;2022-07-12T09:48:16;19.98;;;18.67;;
25231;SDS011;13176;51.140;6.290;2022-07-12T09:50:46;16.83;;;15.90;;
25231;SDS011;13176;51.140;6.290;2022-07-12T09:53:37;23.60;;;22.38;;
25231;SDS011;13176;51.140;6.290;2022-07-12T09:56:12;25.35;;;23.85;;
25231;SDS011;13176;51.140;6.290;2022-07-12T10:01:20;24.05;;;22.83;;
25231;SDS011;13176;51.140;6.290;2022-07-12T10:03:47;22.42;;;21.25;;
25231;SDS011;13176;51.140;6.290;2022-07-12T10:06:32;23.20;;;21.90;;
25231;SDS011;13176;51.140;6.290;2022-07-12T10:09:01;22.67;;;21.45;;
25231;SDS011;13176;51.140;6.290;2022-07-12T10:11:29;23.75;;;22.35;;
25231;SDS011;13176;51.140;6.290;2022-07-12T10:14:16;23.17;;;21.98;;
25231;SDS011;13176;51.140;6.290;2022-07-12T10:16:45;24.20;;;22.92;;
25231;SDS011;13176;51.140;6.290;2022-07-12T10:19:23;22.17;;;21.08;;
25231;SDS011;13176;51.140;6.290;2022-07-12T10:21:53;24.67;;;23.38;;
25231;SDS011;13176;51.140;6.290;2022-07-12T10:27:00;17.75;;;16.85;;
25231;SDS011;13176;51.140;6.290;2022-07-12T10:29:50;19.05;;;18.05;;
25231;SDS011;13176;51.140;6.290;2022-07-12T10:32:26;26.05;;;24.73;;
25231;SDS011;13176;51.140;6.290;2022-07-12T10:34:59;12.80;;;12.15;;
25231;SDS011;13176;51.140;6.290;2022-07-12T10:37:26;14.20;;;13.50;;
25231;SDS011;13176;51.140;6.290;2022-07-12T10:42:39;14.68;;;13.95;;
25231;SDS011;13176;51.140;6.290;2022-07-12T10:45:30;17.73;;;16.85;;
25231;SDS011;13176;51.140;6.290;2022-07-12T10:53:33;18.55;;;17.65;;
25231;SDS011;13176;51.140;6.290;2022-07-12T10:58:31;13.13;;;12.43;;
25231;SDS011;13176;51.140;6.290;2022-07-12T11:00:59;13.07;;;12.38;;
25231;SDS011;13176;51.140;6.290;2022-07-12T11:03:31;15.20;;;14.30;;
25231;SDS011;13176;51.140;6.290;2022-07-12T11:06:08;14.52;;;13.82;;
25231;SDS011;13176;51.140;6.290;2022-07-12T11:08:49;14.98;;;14.18;;
25231;SDS011;13176;51.140;6.290;2022-07-12T11:11:26;14.60;;;13.80;;
25231;SDS011;13176;51.140;6.290;2022-07-12T11:13:58;14.35;;;13.45;;
25231;SDS011;13176;51.140;6.290;2022-07-12T11:16:25;13.57;;;12.68;;
25231;SDS011;13176;51.140;6.290;2022-07-12T11:18:53;13.02;;;12.32;;
25231;SDS011;13176;51.140;6.290;2022-07-12T11:21:20;20.23;;;19.13;;
25231;SDS011;13176;51.140;6.290;2022-07-12T11:23:48;12.88;;;12.18;;
25231;SDS011;13176;51.140;6.290;2022-07-12T11:26:15;12.75;;;12.13;;
25231;SDS011;13176;51.140;6.290;2022-07-12T11:28:42;24.02;;;22.27;;
25231;SDS011;13176;51.140;6.290;2022-07-12T11:33:39;23.33;;;21.92;;
25231;SDS011;13176;51.140;6.290;2022-07-12T11:36:10;30.08;;;28.27;;
25231;SDS011;13176;51.140;6.290;2022-07-12T11:38:38;34.83;;;32.92;;
25231;SDS011;13176;51.140;6.290;2022-07-12T11:41:10;25.90;;;24.30;;
25231;SDS011;13176;51.140;6.290;2022-07-12T11:43:37;22.58;;;21.45;;
25231;SDS011;13176;51.140;6.290;2022-07-12T11:46:05;17.65;;;16.65;;
25231;SDS011;13176;51.140;6.290;2022-07-12T11:48:33;14.48;;;13.45;;
25231;SDS011;13176;51.140;6.290;2022-07-12T11:51:11;12.95;;;12.07;;
25231;SDS011;13176;51.140;6.290;2022-07-12T11:53:41;11.07;;;10.38;;
25231;SDS011;13176;51.140;6.290;2022-07-12T11:56:11;13.70;;;12.77;;
25231;SDS011;13176;51.140;6.290;2022-07-12T11:58:37;12.15;;;11.55;;
25231;SDS011;13176;51.140;6.290;2022-07-12T12:01:04;12.77;;;12.15;;
25231;SDS011;13176;51.140;6.290;2022-07-12T12:03:42;12.10;;;11.50;;
25231;SDS011;13176;51.140;6.290;2022-07-12T12:06:11;12.60;;;11.90;;
25231;SDS011;13176;51.140;6.290;2022-07-12T12:08:37;14.95;;;14.05;;
25231;SDS011;13176;51.140;6.290;2022-07-12T12:11:04;15.23;;;14.27;;
25231;SDS011;13176;51.140;6.290;2022-07-12T12:13:30;19.67;;;18.48;;
25231;SDS011;13176;51.140;6.290;2022-07-12T12:16:01;18.15;;;17.25;;
25231;SDS011;13176;51.140;6.290;2022-07-12T12:18:33;15.48;;;14.27;;
25231;SDS011;13176;51.140;6.290;2022-07-12T12:21:03;13.07;;;12.27;;
25231;SDS011;13176;51.140;6.290;2022-07-12T12:23:34;12.68;;;11.93;;
25231;SDS011;13176;51.140;6.290;2022-07-12T12:26:12;17.70;;;16.83;;
25231;SDS011;13176;51.140;6.290;2022-07-12T12:28:40;15.65;;;14.85;;
25231;SDS011;13176;51.140;6.290;2022-07-12T12:31:08;19.35;;;18.25;;
25231;SDS011;13176;51.140;6.290;2022-07-12T12:33:36;20.20;;;18.88;;
25231;SDS011;13176;51.140;6.290;2022-07-12T12:36:12;21.48;;;20.40;;
25231;SDS011;13176;51.140;6.290;2022-07-12T12:38:39;18.08;;;17.02;;
25231;SDS011;13176;51.140;6.290;2022-07-12T12:41:05;18.15;;;17.15;;
25231;SDS011;13176;51.140;6.290;2022-07-12T12:43:32;18.90;;;17.70;;
25231;SDS011;13176;51.140;6.290;2022-07-12T12:45:59;12.43;;;11.73;;
25231;SDS011;13176;51.140;6.290;2022-07-12T12:48:27;13.23;;;12.52;;
25231;SDS011;13176;51.140;6.290;2022-07-12T12:51:08;14.45;;;13.75;;
25231;SDS011;13176;51.140;6.290;2022-07-12T12:53:37;17.10;;;16.30;;
25231;SDS011;13176;51.140;6.290;2022-07-12T12:56:06;18.02;;;17.10;;
25231;SDS011;13176;51.140;6.290;2022-07-12T12:58:35;18.80;;;17.60;;
25231;SDS011;13176;51.140;6.290;2022-07-12T13:01:03;15.82;;;14.93;;
25231;SDS011;13176;51.140;6.290;2022-07-12T13:03:31;17.85;;;17.02;;
25231;SDS011;13176;51.140;6.290;2022-07-12T13:05:58;9.73;;;9.13;;
25231;SDS011;13176;51.140;6.290;2022-07-12T13:08:25;10.48;;;9.98;;
25231;SDS011;13176;51.140;6.290;2022-07-12T13:10:53;12.88;;;12.13;;
25231;SDS011;13176;51.140;6.290;2022-07-12T13:13:39;12.77;;;12.02;;
25231;SDS011;13176;51.140;6.290;2022-07-12T13:16:06;8.57;;;8.10;;
25231;SDS011;13176;51.140;6.290;2022-07-12T13:18:33;8.20;;;7.60;;
25231;SDS011;13176;51.140;6.290;2022-07-12T13:21:01;8.25;;;7.70;;
25231;SDS011;13176;51.140;6.290;2022-07-12T13:23:28;10.05;;;9.45;;
25231;SDS011;13176;51.140;6.290;2022-07-12T13:25:54;10.27;;;9.77;;
25231;SDS011;13176;51.140;6.290;2022-07-12T13:28:21;9.20;;;8.80;;
25231;SDS011;13176;51.140;6.290;2022-07-12T13:30:48;7.65;;;7.28;;
25231;SDS011;13176;51.140;6.290;2022-07-12T13:33:14;9.20;;;8.70;;
25231;SDS011;13176;51.140;6.290;2022-07-12T13:35:41;10.13;;;9.63;;
25231;SDS011;13176;51.140;6.290;2022-07-12T13:38:09;8.65;;;8.02;;
25231;SDS011;13176;51.140;6.290;2022-07-12T13:40:35;10.02;;;9.32;;
25231;SDS011;13176;51.140;6.290;2022-07-12T13:43:02;9.55;;;9.05;;
25231;SDS011;13176;51.140;6.290;2022-07-12T13:45:29;11.02;;;10.45;;
25231;SDS011;13176;51.140;6.290;2022-07-12T13:47:56;11.88;;;11.00;;
25231;SDS011;13176;51.140;6.290;2022-07-12T13:50:26;12.30;;;11.70;;
25231;SDS011;13176;51.140;6.290;2022-07-12T13:52:58;14.98;;;14.18;;
25231;SDS011;13176;51.140;6.290;2022-07-12T13:55:26;18.98;;;17.77;;
25231;SDS011;13176;51.140;6.290;2022-07-12T13:57:53;15.00;;;14.30;;
25231;SDS011;13176;51.140;6.290;2022-07-12T14:00:19;13.30;;;12.38;;
25231;SDS011;13176;51.140;6.290;2022-07-12T14:02:47;16.63;;;15.68;;
25231;SDS011;13176;51.140;6.290;2022-07-12T14:07:47;18.20;;;17.10;;
25231;SDS011;13176;51.140;6.290;2022-07-12T14:10:13;14.98;;;14.23;;
25231;SDS011;13176;51.140;6.290;2022-07-12T14:12:41;15.02;;;14.27;;
25231;SDS011;13176;51.140;6.290;2022-07-12T14:15:08;16.20;;;15.32;;
25231;SDS011;13176;51.140;6.290;2022-07-12T14:17:43;15.65;;;14.57;;
25231;SDS011;13176;51.140;6.290;2022-07-12T14:20:11;14.57;;;13.68;;
25231;SDS011;13176;51.140;6.290;2022-07-12T14:22:39;11.48;;;10.43;;
25231;SDS011;13176;51.140;6.290;2022-07-12T14:25:07;9.85;;;9.35;;
25231;SDS011;13176;51.140;6.290;2022-07-12T14:27:35;9.48;;;8.88;;
25231;SDS011;13176;51.140;6.290;2022-07-12T14:30:02;17.10;;;16.30;;
25231;SDS011;13176;51.140;6.290;2022-07-12T14:32:30;17.10;;;16.25;;
25231;SDS011;13176;51.140;6.290;2022-07-12T14:34:56;15.85;;;15.02;;
25231;SDS011;13176;51.140;6.290;2022-07-12T14:37:23;12.77;;;11.98;;
25231;SDS011;13176;51.140;6.290;2022-07-12T14:39:50;11.63;;;11.02;;
25231;SDS011;13176;51.140;6.290;2022-07-12T14:42:16;11.57;;;10.98;;
25231;SDS011;13176;51.140;6.290;2022-07-12T14:44:43;16.42;;;15.52;;
25231;SDS011;13176;51.140;6.290;2022-07-12T14:47:14;14.77;;;13.35;;
25231;SDS011;13176;51.140;6.290;2022-07-12T14:49:41;9.98;;;9.40;;
25231;SDS011;13176;51.140;6.290;2022-07-12T14:52:07;15.88;;;14.98;;
25231;SDS011;13176;51.140;6.290;2022-07-12T14:54:34;16.40;;;15.35;;
25231;SDS011;13176;51.140;6.290;2022-07-12T14:57:00;15.60;;;14.80;;
25231;SDS011;13176;51.140;6.290;2022-07-12T14:59:27;16.10;;;15.30;;